createdAt,value
2022-10-18T00:00:48.526Z,75.19
2022-10-18T00:01:50.984Z,75.43
2022-10-18T00:02:53.170Z,75.44
2022-10-18T00:03:55.362Z,75.60
2022-10-18T00:04:57.507Z,75.54
2022-10-18T00:06:00.137Z,75.85
2022-10-18T00:07:02.439Z,75.87
2022-10-18T00:08:04.745Z,76.29
2022-10-18T00:09:07.039Z,76.19
2022-10-18T00:10:10.109Z,76.20
2022-10-18T00:11:12.414Z,76.14
2022-10-18T00:12:14.725Z,76.25
2022-10-18T00:13:17.442Z,76.32
2022-10-18T00:14:19.783Z,76.12
2022-10-18T00:15:21.938Z,75.97
2022-10-18T00:16:24.105Z,76.17
2022-10-18T00:17:29.447Z,76.52
2022-10-18T00:18:32.389Z,76.64
2022-10-18T00:19:34.669Z,76.36
2022-10-18T00:20:36.881Z,76.47
2022-10-18T00:21:39.169Z,76.42
2022-10-18T00:22:42.233Z,76.62
2022-10-18T00:23:45.836Z,76.83
2022-10-18T00:24:48.259Z,77.02
2022-10-18T00:26:02.183Z,76.80
2022-10-18T00:27:04.564Z,77.22
2022-10-18T00:28:06.780Z,77.05
2022-10-18T00:29:15.004Z,77.23
2022-10-18T00:30:17.179Z,77.31
2022-10-18T00:31:27.825Z,77.08
2022-10-18T00:32:30.203Z,77.09
2022-10-18T00:33:32.702Z,77.31
2022-10-18T00:34:35.041Z,77.53
2022-10-18T00:35:37.173Z,77.31
2022-10-18T00:36:39.688Z,77.44
2022-10-18T00:37:41.830Z,77.41
2022-10-18T00:38:44.999Z,77.41
2022-10-18T00:39:47.438Z,77.07
2022-10-18T00:40:49.599Z,76.32
2022-10-18T00:41:52.361Z,76.12
2022-10-18T00:42:54.499Z,76.54
2022-10-18T00:44:06.982Z,76.92
2022-10-18T00:45:21.700Z,77.48
2022-10-18T00:46:25.477Z,77.55
2022-10-18T00:47:40.156Z,77.51
2022-10-18T00:48:42.434Z,77.67
2022-10-18T00:49:52.792Z,77.90
2022-10-18T00:50:55.214Z,77.84
2022-10-18T00:52:05.083Z,78.03
2022-10-18T00:53:12.969Z,77.88
2022-10-18T00:54:17.079Z,77.72
2022-10-18T00:55:20.704Z,77.89
2022-10-18T00:56:23.133Z,77.92
2022-10-18T00:57:25.960Z,78.32
2022-10-18T00:58:29.129Z,78.20
2022-10-18T00:59:31.393Z,78.50
2022-10-18T01:00:35.040Z,78.66
2022-10-18T01:01:37.270Z,78.76
2022-10-18T01:02:42.014Z,78.76
2022-10-18T01:03:44.886Z,78.63
2022-10-18T01:04:47.967Z,78.72
2022-10-18T01:05:50.371Z,78.80
2022-10-18T01:07:21.383Z,78.72
2022-10-18T01:08:28.783Z,79.00
2022-10-18T01:09:36.659Z,78.80
2022-10-18T01:10:45.967Z,78.45
2022-10-18T01:12:23.449Z,78.28
2022-10-18T01:14:11.789Z,78.77
2022-10-18T01:15:29.701Z,78.97
2022-10-18T01:16:42.532Z,79.16
2022-10-18T01:18:21.010Z,78.92
2022-10-18T01:19:47.973Z,79.00
2022-10-18T01:21:13.184Z,78.75
2022-10-18T01:23:00.576Z,78.87
2022-10-18T01:24:19.184Z,79.23
2022-10-18T01:25:30.089Z,79.22
2022-10-18T01:26:38.568Z,79.37
2022-10-18T01:27:46.928Z,79.56
2022-10-18T01:29:24.680Z,79.68
2022-10-18T01:30:38.129Z,79.22
2022-10-18T01:31:46.901Z,79.34
2022-10-18T01:32:52.996Z,79.21
2022-10-18T01:34:00.002Z,79.37
2022-10-18T01:35:08.842Z,79.61
2022-10-18T01:36:28.687Z,79.50
2022-10-18T01:37:33.086Z,79.59
2022-10-18T01:38:38.253Z,79.92
2022-10-18T01:39:43.493Z,80.15
2022-10-18T01:40:50.379Z,80.25
2022-10-18T01:41:54.606Z,80.25
2022-10-18T01:42:56.985Z,80.25
2022-10-18T01:44:02.088Z,80.35
2022-10-18T01:45:04.867Z,80.38
2022-10-18T01:46:09.330Z,80.04
2022-10-18T01:47:13.819Z,80.20
2022-10-18T01:48:16.669Z,80.10
2022-10-18T01:49:19.175Z,80.17
2022-10-18T01:50:35.006Z,80.27
2022-10-18T01:51:37.432Z,80.25
2022-10-18T01:52:52.138Z,80.32
2022-10-18T01:53:54.739Z,80.51
2022-10-18T01:54:59.473Z,80.44
2022-10-18T01:56:10.521Z,80.42
2022-10-18T01:57:22.944Z,80.47
2022-10-18T01:58:37.283Z,80.35
2022-10-18T02:00:04.025Z,80.35
2022-10-18T02:01:31.345Z,80.12
2022-10-18T02:02:51.186Z,79.99
2022-10-18T02:03:58.086Z,79.99
2022-10-18T02:05:35.169Z,80.06
2022-10-18T02:06:45.104Z,80.44
2022-10-18T02:08:23.259Z,80.58
2022-10-18T02:09:36.228Z,80.35
2022-10-18T02:10:46.570Z,80.61
2022-10-18T02:11:54.030Z,80.58
2022-10-18T02:12:57.566Z,80.26
2022-10-18T02:14:12.982Z,80.41
2022-10-18T02:15:19.960Z,80.13
2022-10-18T02:16:35.776Z,80.67
2022-10-18T02:17:40.292Z,80.71
2022-10-18T02:18:49.367Z,80.85
2022-10-18T02:19:54.842Z,80.75
2022-10-18T02:20:59.031Z,80.80
2022-10-18T02:22:02.140Z,80.81
2022-10-18T02:23:07.439Z,80.63
2022-10-18T02:24:12.918Z,80.54
2022-10-18T02:25:21.272Z,80.63
2022-10-18T02:26:23.958Z,80.53
2022-10-18T02:27:26.233Z,80.37
2022-10-18T02:28:28.654Z,80.42
2022-10-18T02:29:32.059Z,80.50
2022-10-18T02:30:52.729Z,80.75
2022-10-18T02:32:09.434Z,80.66
2022-10-18T02:33:22.146Z,80.80
2022-10-18T02:34:35.248Z,80.79
2022-10-18T02:35:45.026Z,80.67
2022-10-18T02:36:58.263Z,80.79
2022-10-18T02:38:01.758Z,80.72
2022-10-18T02:39:11.605Z,80.60
2022-10-18T02:40:15.250Z,80.83
2022-10-18T02:41:27.979Z,81.00
2022-10-18T02:42:35.875Z,80.87
2022-10-18T02:43:38.211Z,81.08
2022-10-18T02:44:40.670Z,80.94
2022-10-18T02:45:43.027Z,80.98
2022-10-18T02:46:46.716Z,81.04
2022-10-18T02:47:49.076Z,81.04
2022-10-18T02:48:51.358Z,80.80
2022-10-18T02:49:53.683Z,80.86
2022-10-18T02:50:56.002Z,81.07
2022-10-18T02:51:58.447Z,81.20
2022-10-18T02:53:00.775Z,80.81
2022-10-18T02:54:03.607Z,81.12
2022-10-18T02:55:09.417Z,80.95
2022-10-18T02:56:11.687Z,80.91
2022-10-18T02:57:14.032Z,81.02
2022-10-18T02:58:16.297Z,81.27
2022-10-18T02:59:18.648Z,81.26
2022-10-18T03:00:20.989Z,81.32
2022-10-18T03:01:24.428Z,81.54
2022-10-18T03:02:27.069Z,81.60
2022-10-18T03:03:29.261Z,81.58
2022-10-18T03:04:31.615Z,81.45
2022-10-18T03:05:33.816Z,81.44
2022-10-18T03:06:36.293Z,81.00
2022-10-18T03:07:38.617Z,80.65
2022-10-18T03:08:40.838Z,81.16
2022-10-18T03:09:43.152Z,81.03
2022-10-18T03:10:46.315Z,81.07
2022-10-18T03:11:48.660Z,80.98
2022-10-18T03:12:50.834Z,80.75
2022-10-18T03:13:53.165Z,80.57
2022-10-18T03:14:55.320Z,80.56
2022-10-18T03:15:57.639Z,80.41
2022-10-18T03:16:59.942Z,80.54
2022-10-18T03:18:02.104Z,80.41
2022-10-18T03:19:04.439Z,80.78
2022-10-18T03:20:07.162Z,80.70
2022-10-18T03:21:10.433Z,80.72
2022-10-18T03:22:12.724Z,80.64
2022-10-18T03:23:14.867Z,80.61
2022-10-18T03:24:17.236Z,80.63
2022-10-18T03:25:19.513Z,80.44
2022-10-18T03:26:21.817Z,80.35
2022-10-18T03:27:24.332Z,80.45
2022-10-18T03:28:26.783Z,80.81
2022-10-18T03:29:29.009Z,80.82
2022-10-18T03:30:31.270Z,80.68
2022-10-18T03:31:33.939Z,80.72
2022-10-18T03:32:36.436Z,80.57
2022-10-18T03:33:38.856Z,80.66
2022-10-18T03:34:41.030Z,80.95
2022-10-18T03:35:43.400Z,80.55
2022-10-18T03:36:45.590Z,80.42
2022-10-18T03:37:48.207Z,80.30
2022-10-18T03:38:50.437Z,80.26
2022-10-18T03:39:52.634Z,80.31
2022-10-18T03:40:54.901Z,80.47
2022-10-18T03:41:57.143Z,80.33
2022-10-18T03:42:59.631Z,80.35
2022-10-18T03:44:01.868Z,80.30
2022-10-18T03:45:04.915Z,80.37
2022-10-18T03:46:07.281Z,80.54
2022-10-18T03:47:09.466Z,80.63
2022-10-18T03:48:11.909Z,80.44
2022-10-18T03:49:14.262Z,79.97
2022-10-18T03:50:16.509Z,80.30
2022-10-18T03:51:18.706Z,80.19
2022-10-18T03:52:21.031Z,80.24
2022-10-18T03:53:23.225Z,80.04
2022-10-18T03:54:25.530Z,79.80
2022-10-18T03:55:27.881Z,79.87
2022-10-18T03:56:30.073Z,79.83
2022-10-18T03:57:32.410Z,79.75
2022-10-18T03:59:41.677Z,79.84
2022-10-18T04:00:43.998Z,79.59
2022-10-18T04:01:46.176Z,79.54
2022-10-18T04:02:52.017Z,79.48
2022-10-18T04:03:57.200Z,79.02
2022-10-18T04:04:59.401Z,78.09
2022-10-18T04:06:03.462Z,77.97
2022-10-18T04:07:05.617Z,78.07
2022-10-18T04:08:08.199Z,78.16
2022-10-18T04:09:10.506Z,78.07
2022-10-18T04:10:12.925Z,78.14
2022-10-18T04:11:15.307Z,78.63
2022-10-18T04:12:17.599Z,78.49
2022-10-18T04:13:19.933Z,79.08
2022-10-18T04:14:22.191Z,79.21
2022-10-18T04:15:24.450Z,79.04
2022-10-18T04:16:26.914Z,79.02
2022-10-18T04:17:29.392Z,79.03
2022-10-18T04:18:32.232Z,79.21
2022-10-18T04:19:34.458Z,79.24
2022-10-18T04:20:36.817Z,79.39
2022-10-18T04:21:39.148Z,79.20
2022-10-18T04:22:41.464Z,79.42
2022-10-18T04:23:44.001Z,79.38
2022-10-18T04:24:46.157Z,79.45
2022-10-18T04:25:48.328Z,79.53
2022-10-18T04:26:51.454Z,79.54
2022-10-18T04:27:53.781Z,79.52
2022-10-18T04:28:55.979Z,79.36
2022-10-18T04:29:58.323Z,79.52
2022-10-18T04:31:01.120Z,79.69
2022-10-18T04:32:03.545Z,79.61
2022-10-18T04:33:05.963Z,79.64
2022-10-18T04:34:09.008Z,79.57
2022-10-18T04:35:11.702Z,79.61
2022-10-18T04:36:13.871Z,79.91
2022-10-18T04:37:16.079Z,79.96
2022-10-18T04:38:19.923Z,79.87
2022-10-18T04:39:22.104Z,79.73
2022-10-18T04:40:24.435Z,80.07
2022-10-18T04:41:26.582Z,79.36
2022-10-18T04:42:28.736Z,79.67
2022-10-18T04:43:31.334Z,79.40
2022-10-18T04:44:34.423Z,79.58
2022-10-18T04:45:36.673Z,79.67
2022-10-18T04:46:38.820Z,79.69
2022-10-18T04:47:41.140Z,79.48
2022-10-18T04:48:43.556Z,79.36
2022-10-18T04:49:45.711Z,79.23
2022-10-18T04:50:49.783Z,79.30
2022-10-18T04:51:51.965Z,79.36
2022-10-18T04:52:54.270Z,79.27
2022-10-18T04:53:56.755Z,79.26
2022-10-18T04:54:58.952Z,79.29
2022-10-18T04:56:01.259Z,79.15
2022-10-18T04:57:03.924Z,79.09
2022-10-18T04:58:06.082Z,78.95
2022-10-18T04:59:08.649Z,79.15
2022-10-18T05:00:11.322Z,78.81
2022-10-18T05:01:13.618Z,78.89
2022-10-18T05:02:15.808Z,78.95
2022-10-18T05:03:18.268Z,79.14
2022-10-18T05:04:20.587Z,78.99
2022-10-18T05:05:23.198Z,78.60
2022-10-18T05:06:27.214Z,76.97
2022-10-18T05:07:29.391Z,76.44
2022-10-18T05:08:33.748Z,76.27
2022-10-18T05:09:35.971Z,76.66
2022-10-18T05:10:38.428Z,76.72
2022-10-18T05:11:40.634Z,77.04
2022-10-18T05:12:43.822Z,77.23
2022-10-18T05:13:48.622Z,77.55
2022-10-18T05:14:53.315Z,77.68
2022-10-18T05:15:55.918Z,77.94
2022-10-18T05:16:58.354Z,78.16
2022-10-18T05:18:00.541Z,78.08
2022-10-18T05:19:05.251Z,78.40
2022-10-18T05:20:07.775Z,78.37
2022-10-18T05:21:10.707Z,78.32
2022-10-18T05:22:12.877Z,78.33
2022-10-18T05:23:15.087Z,78.16
2022-10-18T05:24:17.555Z,78.39
2022-10-18T05:25:19.728Z,78.31
2022-10-18T05:26:22.029Z,78.40
2022-10-18T05:27:24.189Z,78.49
2022-10-18T05:28:42.153Z,78.62
2022-10-18T05:29:44.622Z,78.16
2022-10-18T05:30:46.825Z,78.05
2022-10-18T05:31:49.621Z,78.27
2022-10-18T05:32:51.794Z,78.54
2022-10-18T05:33:54.101Z,78.76
2022-10-18T05:34:56.626Z,78.75
2022-10-18T05:35:59.530Z,78.60
2022-10-18T05:37:01.704Z,78.42
2022-10-18T05:38:06.180Z,78.46
2022-10-18T05:39:08.365Z,77.95
2022-10-18T05:40:11.259Z,78.16
2022-10-18T05:41:13.880Z,78.43
2022-10-18T05:42:16.160Z,78.92
2022-10-18T05:43:18.403Z,79.00
2022-10-18T05:44:21.662Z,79.24
2022-10-18T05:45:23.836Z,79.33
2022-10-18T05:46:26.110Z,78.74
2022-10-18T05:47:28.333Z,79.10
2022-10-18T05:48:31.165Z,79.00
2022-10-18T05:49:33.504Z,78.65
2022-10-18T05:50:38.141Z,77.86
2022-10-18T05:51:42.764Z,77.83
2022-10-18T05:52:44.994Z,78.16
2022-10-18T05:53:47.587Z,78.46
2022-10-18T05:54:49.917Z,78.92
2022-10-18T05:55:52.246Z,79.43
2022-10-18T05:56:54.457Z,79.73
2022-10-18T05:57:56.906Z,79.81
2022-10-18T05:58:59.060Z,79.80
2022-10-18T06:00:01.528Z,79.76
2022-10-18T06:01:13.912Z,79.79
2022-10-18T06:02:16.343Z,79.71
2022-10-18T06:03:18.730Z,80.21
2022-10-18T06:04:21.250Z,80.31
2022-10-18T06:05:23.583Z,79.67
2022-10-18T06:06:25.783Z,78.78
2022-10-18T06:07:27.951Z,78.62
2022-10-18T06:08:30.335Z,78.74
2022-10-18T06:09:32.515Z,78.70
2022-10-18T06:10:34.838Z,78.61
2022-10-18T06:11:37.349Z,78.71
2022-10-18T06:12:39.627Z,78.30
2022-10-18T06:13:43.607Z,77.96
2022-10-18T06:14:45.795Z,78.46
2022-10-18T06:15:48.136Z,78.67
2022-10-18T06:16:50.577Z,79.36
2022-10-18T06:17:52.747Z,79.28
2022-10-18T06:18:57.318Z,79.51
2022-10-18T06:19:59.527Z,79.90
2022-10-18T06:21:02.179Z,79.62
2022-10-18T06:22:04.857Z,79.94
2022-10-18T06:23:07.019Z,80.10
2022-10-18T06:24:09.233Z,79.93
2022-10-18T06:25:11.715Z,80.23
2022-10-18T06:26:13.867Z,80.06
2022-10-18T06:27:16.272Z,79.95
2022-10-18T06:28:18.463Z,79.06
2022-10-18T06:29:20.603Z,78.56
2022-10-18T06:30:23.088Z,78.53
2022-10-18T06:31:25.357Z,78.40
2022-10-18T06:32:27.561Z,79.06
2022-10-18T06:33:31.406Z,78.87
2022-10-18T06:34:34.087Z,79.02
2022-10-18T06:35:36.568Z,79.26
2022-10-18T06:36:38.745Z,79.01
2022-10-18T06:38:48.745Z,78.91
2022-10-18T06:39:50.890Z,78.85
2022-10-18T06:40:54.294Z,78.73
2022-10-18T06:41:56.471Z,78.66
2022-10-18T06:43:19.587Z,78.89
2022-10-18T06:44:23.198Z,78.60
2022-10-18T06:45:25.628Z,78.55
2022-10-18T06:46:27.834Z,78.66
2022-10-18T06:47:30.046Z,78.94
2022-10-18T06:48:32.935Z,79.27
2022-10-18T06:49:35.224Z,79.39
2022-10-18T06:50:37.897Z,79.58
2022-10-18T06:51:40.777Z,79.62
2022-10-18T06:52:43.519Z,79.69
2022-10-18T06:53:59.060Z,80.02
2022-10-18T06:55:09.201Z,79.96
2022-10-18T06:56:13.513Z,80.34
2022-10-18T06:57:15.668Z,80.03
2022-10-18T06:58:18.082Z,79.60
2022-10-18T06:59:20.207Z,79.98
2022-10-18T07:00:22.547Z,80.41
2022-10-18T07:01:24.750Z,80.53
2022-10-18T07:02:26.982Z,81.02
2022-10-18T07:03:29.451Z,81.20
2022-10-18T07:04:31.654Z,81.20
2022-10-18T07:06:41.156Z,81.59
2022-10-18T07:07:43.389Z,81.32
2022-10-18T07:08:47.322Z,81.40
2022-10-18T07:09:49.476Z,81.88
2022-10-18T07:10:53.369Z,81.25
2022-10-18T07:11:55.492Z,80.93
2022-10-18T07:13:13.538Z,81.01
2022-10-18T07:14:19.931Z,80.88
2022-10-18T07:15:24.045Z,80.84
2022-10-18T07:16:26.623Z,80.03
2022-10-18T07:17:29.050Z,79.90
2022-10-18T07:18:33.141Z,79.92
2022-10-18T07:19:35.496Z,80.25
2022-10-18T07:20:37.819Z,80.48
2022-10-18T07:21:40.100Z,81.57
2022-10-18T07:22:42.272Z,81.98
2022-10-18T07:23:48.481Z,82.39
2022-10-18T07:24:50.991Z,82.76
2022-10-18T07:25:53.155Z,82.84
2022-10-18T07:26:55.509Z,83.05
2022-10-18T07:27:57.734Z,82.73
2022-10-18T07:29:08.752Z,82.23
2022-10-18T07:30:11.559Z,82.31
2022-10-18T07:31:14.211Z,81.94
2022-10-18T07:32:16.554Z,82.02
2022-10-18T07:33:20.695Z,82.19
2022-10-18T07:34:22.887Z,82.54
2022-10-18T07:35:25.053Z,82.96
2022-10-18T07:36:27.284Z,82.76
2022-10-18T07:37:30.533Z,83.37
2022-10-18T07:38:32.953Z,84.12
2022-10-18T07:39:35.100Z,84.16
2022-10-18T07:40:37.235Z,84.39
2022-10-18T07:41:39.844Z,84.35
2022-10-18T07:42:42.618Z,84.63
2022-10-18T07:43:48.836Z,84.08
2022-10-18T07:44:51.154Z,83.73
2022-10-18T07:45:54.841Z,83.33
2022-10-18T07:46:57.158Z,83.45
2022-10-18T07:47:59.543Z,83.17
2022-10-18T07:49:01.756Z,83.18
2022-10-18T07:50:03.947Z,83.18
2022-10-18T07:51:06.725Z,84.08
2022-10-18T07:52:09.165Z,83.42
2022-10-18T07:53:11.304Z,83.32
2022-10-18T07:54:13.528Z,83.02
2022-10-18T07:55:15.831Z,83.41
2022-10-18T07:56:21.275Z,83.36
2022-10-18T07:57:24.002Z,83.60
2022-10-18T07:58:26.538Z,83.53
2022-10-18T07:59:28.681Z,83.85
2022-10-18T08:00:31.081Z,83.78
2022-10-18T08:01:34.367Z,83.61
2022-10-18T08:02:36.815Z,83.80
2022-10-18T08:03:39.110Z,83.54
2022-10-18T08:04:41.616Z,83.78
2022-10-18T08:05:43.933Z,84.17
2022-10-18T08:06:46.252Z,84.20
2022-10-18T08:07:48.571Z,84.39
2022-10-18T08:08:50.784Z,84.96
2022-10-18T08:09:52.994Z,84.55
2022-10-18T08:10:55.828Z,85.10
2022-10-18T08:11:58.021Z,84.98
2022-10-18T08:13:00.434Z,85.13
2022-10-18T08:14:02.634Z,85.02
2022-10-18T08:15:05.233Z,84.87
2022-10-18T08:16:10.207Z,85.00
2022-10-18T08:17:12.507Z,85.31
2022-10-18T08:18:14.655Z,85.53
2022-10-18T08:19:16.967Z,85.93
2022-10-18T08:20:30.404Z,86.46
2022-10-18T08:21:33.501Z,86.50
2022-10-18T08:22:35.746Z,86.06
2022-10-18T08:23:38.656Z,86.45
2022-10-18T08:24:40.807Z,86.45
2022-10-18T08:25:42.974Z,86.23
2022-10-18T08:26:45.108Z,86.94
2022-10-18T08:27:47.550Z,87.73
2022-10-18T08:28:58.345Z,88.42
2022-10-18T08:30:12.048Z,89.58
2022-10-18T08:31:19.775Z,90.04
2022-10-18T08:32:21.962Z,89.64
2022-10-18T08:33:24.188Z,89.12
2022-10-18T08:34:26.437Z,88.44
2022-10-18T08:35:28.601Z,87.98
2022-10-18T08:36:30.762Z,87.07
2022-10-18T08:37:33.441Z,86.85
2022-10-18T08:38:37.846Z,85.78
2022-10-18T08:39:39.991Z,85.77
2022-10-18T08:40:44.499Z,85.86
2022-10-18T08:42:04.039Z,86.14
2022-10-18T08:43:21.461Z,87.32
2022-10-18T08:44:30.237Z,87.24
2022-10-18T08:45:42.358Z,87.34
2022-10-18T08:46:51.137Z,87.52
2022-10-18T08:47:57.330Z,88.00
2022-10-18T08:49:01.848Z,88.01
2022-10-18T08:50:14.791Z,87.84
2022-10-18T08:51:42.455Z,88.12
2022-10-18T08:53:17.783Z,87.94
2022-10-18T08:54:33.663Z,87.82
2022-10-18T08:55:42.213Z,87.38
2022-10-18T08:56:54.340Z,87.25
2022-10-18T08:57:58.240Z,87.21
2022-10-18T08:59:04.180Z,87.36
2022-10-18T09:00:26.082Z,87.22
2022-10-18T09:01:28.364Z,87.23
2022-10-18T09:02:52.879Z,87.27
2022-10-18T09:04:01.394Z,87.21
2022-10-18T09:05:24.932Z,86.79
2022-10-18T09:06:44.658Z,85.95
2022-10-18T09:08:11.508Z,86.04
2022-10-18T09:09:36.928Z,86.13
2022-10-18T09:10:53.537Z,85.82
2022-10-18T09:12:21.033Z,85.48
2022-10-18T09:13:42.165Z,85.09
2022-10-18T09:15:09.481Z,84.39
2022-10-18T09:16:16.850Z,84.42
2022-10-18T09:17:35.350Z,84.52
2022-10-18T09:19:02.605Z,86.13
2022-10-18T09:20:25.268Z,88.14
2022-10-18T09:21:38.295Z,88.98
2022-10-18T09:23:12.506Z,89.31
2022-10-18T09:24:26.497Z,88.83
2022-10-18T09:25:47.097Z,87.64
2022-10-18T09:26:54.798Z,87.15
2022-10-18T09:28:14.227Z,86.93
2022-10-18T09:29:46.618Z,87.35
2022-10-18T09:30:59.802Z,87.46
2022-10-18T09:32:44.385Z,88.45
2022-10-18T09:34:05.386Z,89.42
2022-10-18T09:35:16.805Z,90.14
2022-10-18T09:36:39.007Z,90.15
2022-10-18T09:37:43.268Z,89.67
2022-10-18T09:38:49.255Z,90.47
2022-10-18T09:40:00.010Z,90.63
2022-10-18T09:41:13.461Z,90.31
2022-10-18T09:42:27.014Z,89.75
2022-10-18T09:43:58.847Z,89.65
2022-10-18T09:45:08.098Z,90.29
2022-10-18T09:46:11.339Z,90.47
2022-10-18T09:47:21.504Z,90.53
2022-10-18T09:48:29.577Z,90.92
2022-10-18T09:49:42.187Z,90.47
2022-10-18T09:50:50.937Z,90.44
2022-10-18T09:51:54.310Z,90.20
2022-10-18T09:53:20.992Z,90.49
2022-10-18T09:54:42.045Z,90.73
2022-10-18T09:56:05.348Z,90.75
2022-10-18T09:57:15.294Z,90.50
2022-10-18T09:58:20.559Z,90.68
2022-10-18T09:59:40.545Z,91.26
2022-10-18T10:00:48.399Z,91.66
2022-10-18T10:01:50.616Z,91.36
2022-10-18T10:02:52.976Z,91.19
2022-10-18T10:03:55.272Z,91.34
2022-10-18T10:04:57.681Z,91.40
2022-10-18T10:06:11.839Z,91.60
2022-10-18T10:07:29.891Z,91.86
2022-10-18T10:08:35.468Z,91.72
2022-10-18T10:10:01.684Z,91.59
2022-10-18T10:11:04.048Z,91.29
2022-10-18T10:12:24.780Z,90.95
2022-10-18T10:13:27.975Z,90.63
2022-10-18T10:14:30.783Z,90.64
2022-10-18T10:15:37.173Z,90.79
2022-10-18T10:16:51.506Z,90.80
2022-10-18T10:18:01.540Z,90.61
2022-10-18T10:19:03.624Z,91.08
2022-10-18T10:20:20.248Z,90.73
2022-10-18T10:21:23.389Z,90.99
2022-10-18T10:22:36.000Z,91.03
2022-10-18T10:23:54.789Z,91.20
2022-10-18T10:24:57.023Z,91.47
2022-10-18T10:26:04.981Z,91.08
2022-10-18T10:27:17.106Z,91.07
2022-10-18T10:28:26.528Z,91.51
2022-10-18T10:29:46.930Z,92.28
2022-10-18T10:30:49.332Z,92.22
2022-10-18T10:32:04.262Z,92.03
2022-10-18T10:33:27.003Z,91.99
2022-10-18T10:34:29.875Z,91.66
2022-10-18T10:35:54.278Z,91.05
2022-10-18T10:36:56.733Z,91.01
2022-10-18T10:37:59.191Z,91.14
2022-10-18T10:39:12.110Z,91.34
2022-10-18T10:40:20.276Z,91.29
2022-10-18T10:41:24.154Z,91.27
2022-10-18T10:42:26.505Z,91.87
2022-10-18T10:43:40.015Z,91.98
2022-10-18T10:44:55.061Z,92.07
2022-10-18T10:45:59.662Z,91.86
2022-10-18T10:47:02.243Z,91.84
2022-10-18T10:48:16.761Z,91.60
2022-10-18T10:49:40.266Z,91.61
2022-10-18T10:50:55.288Z,91.72
2022-10-18T10:52:09.246Z,91.55
2022-10-18T10:53:52.631Z,91.60
2022-10-18T10:55:05.683Z,91.53
2022-10-18T10:56:28.796Z,91.48
2022-10-18T10:57:31.868Z,91.75
2022-10-18T10:58:37.466Z,92.01
2022-10-18T10:59:56.229Z,92.43
2022-10-18T11:00:58.497Z,92.23
2022-10-18T11:02:19.090Z,91.85
2022-10-18T11:03:29.095Z,91.71
2022-10-18T11:04:32.415Z,91.41
2022-10-18T11:05:43.853Z,91.22
2022-10-18T11:06:52.000Z,91.05
2022-10-18T11:08:02.022Z,90.40
2022-10-18T11:09:15.686Z,90.33
2022-10-18T11:10:22.895Z,90.57
2022-10-18T11:11:33.290Z,90.60
2022-10-18T11:12:47.340Z,90.38
2022-10-18T11:14:07.224Z,90.71
2022-10-18T11:15:26.245Z,90.35
2022-10-18T11:16:42.637Z,90.02
2022-10-18T11:18:08.964Z,90.88
2022-10-18T11:19:41.064Z,91.09
2022-10-18T11:21:08.029Z,90.61
2022-10-18T11:22:17.193Z,90.42
2022-10-18T11:23:19.673Z,90.03
2022-10-18T11:24:23.285Z,90.24
2022-10-18T11:25:53.317Z,89.97
2022-10-18T11:27:16.767Z,89.84
2022-10-18T11:28:28.716Z,89.71
2022-10-18T11:30:08.082Z,89.92
2022-10-18T11:31:35.812Z,89.74
2022-10-18T11:33:12.078Z,89.41
2022-10-18T11:34:32.378Z,88.96
2022-10-18T11:35:49.830Z,89.49
2022-10-18T11:37:02.297Z,90.11
2022-10-18T11:38:42.375Z,89.48
2022-10-18T11:40:10.505Z,89.47
2022-10-18T11:41:30.891Z,89.84
2022-10-18T11:42:35.665Z,89.55
2022-10-18T11:44:01.599Z,89.87
2022-10-18T11:46:53.781Z,89.82
2022-10-18T11:48:04.710Z,89.56
2022-10-18T11:49:30.155Z,90.07
2022-10-18T11:50:50.981Z,89.72
2022-10-18T11:52:07.433Z,90.07
2022-10-18T11:53:22.883Z,89.53
2022-10-18T11:54:46.097Z,88.23
2022-10-18T11:55:56.810Z,88.92
2022-10-18T11:57:26.516Z,88.70
2022-10-18T11:58:31.491Z,88.44
2022-10-18T12:00:11.780Z,88.54
2022-10-18T12:01:28.499Z,89.09
2022-10-18T12:02:49.196Z,89.13
2022-10-18T12:04:49.037Z,89.91
2022-10-18T12:06:14.891Z,89.09
2022-10-18T12:07:26.791Z,88.82
2022-10-18T12:08:43.862Z,88.94
2022-10-18T12:11:06.026Z,88.79
2022-10-18T12:12:23.050Z,89.19
2022-10-18T12:13:44.080Z,88.32
2022-10-18T12:14:55.185Z,88.16
2022-10-18T12:15:57.774Z,87.83
2022-10-18T12:17:39.816Z,88.22
2022-10-18T12:18:30.688Z,87.95
2022-10-18T12:19:35.510Z,87.43
2022-10-18T12:20:47.017Z,87.22
2022-10-18T12:21:49.735Z,86.68
2022-10-18T12:23:01.891Z,86.43
2022-10-18T12:24:16.046Z,86.03
2022-10-18T12:25:19.102Z,85.65
2022-10-18T12:26:22.677Z,85.43
2022-10-18T12:27:53.273Z,84.92
2022-10-18T12:29:08.506Z,84.28
2022-10-18T12:30:58.639Z,84.52
2022-10-18T12:32:11.263Z,84.54
2022-10-18T12:33:33.723Z,85.00
2022-10-18T12:34:53.882Z,84.63
2022-10-18T12:36:20.074Z,84.22
2022-10-18T12:37:31.553Z,84.29
2022-10-18T12:38:37.852Z,84.20
2022-10-18T12:40:11.472Z,84.00
2022-10-18T12:41:22.931Z,84.09
2022-10-18T12:42:31.178Z,84.12
2022-10-18T12:43:37.991Z,84.42
2022-10-18T12:44:40.195Z,84.30
2022-10-18T12:45:52.796Z,84.17
2022-10-18T12:46:58.161Z,84.14
2022-10-18T12:48:07.538Z,84.13
2022-10-18T12:49:12.246Z,84.05
2022-10-18T12:50:23.299Z,83.85
2022-10-18T12:51:25.535Z,83.34
2022-10-18T12:52:31.938Z,84.13
2022-10-18T12:53:35.150Z,84.06
2022-10-18T12:54:39.614Z,84.27
2022-10-18T12:55:45.291Z,83.25
2022-10-18T12:56:47.720Z,83.22
2022-10-18T12:57:52.940Z,82.38
2022-10-18T12:59:14.056Z,82.56
2022-10-18T13:00:31.203Z,83.08
2022-10-18T13:01:56.582Z,83.55
2022-10-18T13:03:14.279Z,83.93
2022-10-18T13:04:28.666Z,83.78
2022-10-18T13:05:54.868Z,84.27
2022-10-18T13:07:00.534Z,85.04
2022-10-18T13:08:31.692Z,84.13
2022-10-18T13:09:39.517Z,84.49
2022-10-18T13:10:41.939Z,84.69
2022-10-18T13:11:44.270Z,84.62
2022-10-18T13:13:38.644Z,84.71
2022-10-18T13:15:12.512Z,84.18
2022-10-18T13:16:30.136Z,84.06
2022-10-18T13:17:58.531Z,83.35
2022-10-18T13:19:15.579Z,82.73
2022-10-18T13:20:36.751Z,83.07
2022-10-18T13:21:45.145Z,83.71
2022-10-18T13:23:08.108Z,83.66
2022-10-18T13:24:15.140Z,84.25
2022-10-18T13:25:17.242Z,84.53
2022-10-18T13:26:28.519Z,85.13
2022-10-18T13:27:38.360Z,85.67
2022-10-18T13:29:13.573Z,85.77
2022-10-18T13:30:41.507Z,86.51
2022-10-18T13:33:29.394Z,87.43
2022-10-18T13:34:39.139Z,87.46
2022-10-18T13:35:54.864Z,87.17
2022-10-18T13:37:24.134Z,87.55
2022-10-18T13:38:29.321Z,88.08
2022-10-18T13:39:33.116Z,88.33
2022-10-18T13:40:35.483Z,88.17
2022-10-18T13:41:46.960Z,88.52
2022-10-18T13:42:49.273Z,88.63
2022-10-18T13:44:10.468Z,89.05
2022-10-18T13:45:30.908Z,89.21
2022-10-18T13:46:33.189Z,89.02
2022-10-18T13:47:38.003Z,89.00
2022-10-18T13:48:52.245Z,88.76
2022-10-18T13:51:53.984Z,89.02
2022-10-18T13:53:09.327Z,88.71
2022-10-18T13:54:38.816Z,88.00
2022-10-18T13:56:06.012Z,87.92
2022-10-18T13:57:32.540Z,87.91
2022-10-18T13:59:06.097Z,87.74
2022-10-18T14:00:30.198Z,87.77
2022-10-18T14:01:37.663Z,88.16
2022-10-18T14:03:08.414Z,88.08
2022-10-18T14:04:52.378Z,88.60
2022-10-18T14:06:12.117Z,89.16
2022-10-18T14:07:18.298Z,89.25
2022-10-18T14:08:36.479Z,89.39
2022-10-18T14:09:55.016Z,89.60
2022-10-18T14:11:22.332Z,89.45
2022-10-18T14:12:39.955Z,89.19
2022-10-18T14:13:54.812Z,88.92
2022-10-18T14:15:08.082Z,89.15
2022-10-18T14:16:30.918Z,89.17
2022-10-18T14:17:56.761Z,88.93
2022-10-18T14:19:11.784Z,88.84
2022-10-18T14:20:20.026Z,88.48
2022-10-18T14:21:31.384Z,88.47
2022-10-18T14:22:45.039Z,88.72
2022-10-18T14:23:47.521Z,88.58
2022-10-18T14:24:54.229Z,88.38
2022-10-18T14:26:07.058Z,88.42
2022-10-18T14:27:16.685Z,88.60
2022-10-18T14:28:27.303Z,89.31
2022-10-18T14:29:39.527Z,89.05
2022-10-18T14:30:53.761Z,89.09
2022-10-18T14:31:56.389Z,88.86
2022-10-18T14:32:59.688Z,88.96
2022-10-18T14:34:03.361Z,88.70
2022-10-18T14:35:33.644Z,89.03
2022-10-18T14:36:47.675Z,89.25
2022-10-18T14:37:52.541Z,89.44
2022-10-18T14:38:54.772Z,89.17
2022-10-18T14:39:57.027Z,88.81
2022-10-18T14:41:07.466Z,89.19
2022-10-18T14:42:20.704Z,89.15
2022-10-18T14:43:22.952Z,88.57
2022-10-18T14:44:30.183Z,88.60
2022-10-18T14:45:32.533Z,88.42
2022-10-18T14:46:41.411Z,88.65
2022-10-18T14:47:45.493Z,88.37
2022-10-18T14:49:02.010Z,87.57
2022-10-18T14:50:20.044Z,87.12
2022-10-18T14:51:22.645Z,87.00
2022-10-18T14:52:35.313Z,86.88